sensor_id;sensor_type;location;lat;lon;timestamp;P1;durP1;ratioP1;P2;durP2;ratioP2
41480;SDS011;27217;51.220;5.308;2022-11-15T00:00:16;29.30;;;13.43;;
41480;SDS011;27217;51.220;5.308;2022-11-15T00:02:43;27.52;;;13.70;;
41480;SDS011;27217;51.220;5.308;2022-11-15T00:05:08;27.77;;;14.18;;
41480;SDS011;27217;51.220;5.308;2022-11-15T00:07:34;26.83;;;13.00;;
41480;SDS011;27217;51.220;5.308;2022-11-15T00:10:00;30.50;;;13.45;;
41480;SDS011;27217;51.220;5.308;2022-11-15T00:12:27;20.85;;;13.00;;
41480;SDS011;27217;51.220;5.308;2022-11-15T00:14:53;23.00;;;12.48;;
41480;SDS011;27217;51.220;5.308;2022-11-15T00:17:19;24.38;;;13.40;;
41480;SDS011;27217;51.220;5.308;2022-11-15T00:19:45;20.85;;;13.80;;
41480;SDS011;27217;51.220;5.308;2022-11-15T00:22:11;24.23;;;13.90;;
41480;SDS011;27217;51.220;5.308;2022-11-15T00:24:36;39.65;;;14.23;;
41480;SDS011;27217;51.220;5.308;2022-11-15T00:27:02;20.65;;;12.38;;
41480;SDS011;27217;51.220;5.308;2022-11-15T00:29:28;25.80;;;14.18;;
41480;SDS011;27217;51.220;5.308;2022-11-15T00:31:53;26.27;;;13.23;;
41480;SDS011;27217;51.220;5.308;2022-11-15T00:34:19;26.58;;;13.65;;
41480;SDS011;27217;51.220;5.308;2022-11-15T00:36:44;28.15;;;13.93;;
41480;SDS011;27217;51.220;5.308;2022-11-15T00:39:10;24.15;;;13.98;;
41480;SDS011;27217;51.220;5.308;2022-11-15T00:41:36;25.20;;;14.48;;
41480;SDS011;27217;51.220;5.308;2022-11-15T00:44:01;32.40;;;14.52;;
41480;SDS011;27217;51.220;5.308;2022-11-15T00:46:27;29.08;;;15.70;;
41480;SDS011;27217;51.220;5.308;2022-11-15T00:48:53;26.38;;;13.90;;
41480;SDS011;27217;51.220;5.308;2022-11-15T00:51:19;27.02;;;14.43;;
41480;SDS011;27217;51.220;5.308;2022-11-15T00:53:45;26.50;;;14.35;;
41480;SDS011;27217;51.220;5.308;2022-11-15T00:56:11;33.50;;;14.48;;
41480;SDS011;27217;51.220;5.308;2022-11-15T00:58:37;28.77;;;15.40;;
41480;SDS011;27217;51.220;5.308;2022-11-15T01:01:06;27.42;;;15.48;;
41480;SDS011;27217;51.220;5.308;2022-11-15T01:03:34;28.98;;;15.57;;
41480;SDS011;27217;51.220;5.308;2022-11-15T01:06:00;31.98;;;15.52;;
41480;SDS011;27217;51.220;5.308;2022-11-15T01:08:26;29.77;;;15.57;;
41480;SDS011;27217;51.220;5.308;2022-11-15T01:10:52;31.90;;;15.80;;
41480;SDS011;27217;51.220;5.308;2022-11-15T01:13:18;26.35;;;15.43;;
41480;SDS011;27217;51.220;5.308;2022-11-15T01:15:44;31.88;;;16.35;;
41480;SDS011;27217;51.220;5.308;2022-11-15T01:18:09;27.50;;;15.75;;
41480;SDS011;27217;51.220;5.308;2022-11-15T01:20:39;29.77;;;15.70;;
41480;SDS011;27217;51.220;5.308;2022-11-15T01:23:09;38.35;;;16.67;;
41480;SDS011;27217;51.220;5.308;2022-11-15T01:25:35;29.40;;;15.10;;
41480;SDS011;27217;51.220;5.308;2022-11-15T01:28:00;31.50;;;15.70;;
41480;SDS011;27217;51.220;5.308;2022-11-15T01:30:26;31.33;;;17.23;;
41480;SDS011;27217;51.220;5.308;2022-11-15T01:32:52;30.98;;;16.60;;
41480;SDS011;27217;51.220;5.308;2022-11-15T01:35:17;34.50;;;16.90;;
41480;SDS011;27217;51.220;5.308;2022-11-15T01:37:43;30.60;;;16.23;;
41480;SDS011;27217;51.220;5.308;2022-11-15T01:40:09;34.78;;;17.02;;
41480;SDS011;27217;51.220;5.308;2022-11-15T01:42:35;27.52;;;15.73;;
41480;SDS011;27217;51.220;5.308;2022-11-15T01:45:00;35.20;;;18.30;;
41480;SDS011;27217;51.220;5.308;2022-11-15T01:47:34;35.42;;;17.02;;
41480;SDS011;27217;51.220;5.308;2022-11-15T01:50:12;35.67;;;15.90;;
41480;SDS011;27217;51.220;5.308;2022-11-15T01:52:41;30.38;;;15.73;;
41480;SDS011;27217;51.220;5.308;2022-11-15T01:55:09;31.58;;;15.35;;
41480;SDS011;27217;51.220;5.308;2022-11-15T01:57:39;32.38;;;17.17;;
41480;SDS011;27217;51.220;5.308;2022-11-15T02:00:08;31.08;;;16.10;;
41480;SDS011;27217;51.220;5.308;2022-11-15T02:02:35;28.50;;;15.82;;
41480;SDS011;27217;51.220;5.308;2022-11-15T02:05:02;31.98;;;16.25;;
41480;SDS011;27217;51.220;5.308;2022-11-15T02:07:28;29.45;;;16.50;;
41480;SDS011;27217;51.220;5.308;2022-11-15T02:09:57;31.63;;;16.23;;
41480;SDS011;27217;51.220;5.308;2022-11-15T02:12:25;28.45;;;16.52;;
41480;SDS011;27217;51.220;5.308;2022-11-15T02:14:52;31.52;;;16.67;;
41480;SDS011;27217;51.220;5.308;2022-11-15T02:22:51;36.13;;;15.38;;
41480;SDS011;27217;51.220;5.308;2022-11-15T02:25:32;25.95;;;15.27;;
41480;SDS011;27217;51.220;5.308;2022-11-15T02:36:05;28.27;;;15.90;;
41480;SDS011;27217;51.220;5.308;2022-11-15T02:39:02;31.08;;;15.48;;
41480;SDS011;27217;51.220;5.308;2022-11-15T02:41:46;32.08;;;15.18;;
41480;SDS011;27217;51.220;5.308;2022-11-15T02:44:24;31.90;;;14.95;;
41480;SDS011;27217;51.220;5.308;2022-11-15T02:47:01;31.75;;;15.15;;
41480;SDS011;27217;51.220;5.308;2022-11-15T02:49:45;28.48;;;16.63;;
41480;SDS011;27217;51.220;5.308;2022-11-15T02:52:17;26.92;;;14.90;;
41480;SDS011;27217;51.220;5.308;2022-11-15T02:54:55;38.30;;;16.52;;
41480;SDS011;27217;51.220;5.308;2022-11-15T02:57:28;33.90;;;16.70;;
41480;SDS011;27217;51.220;5.308;2022-11-15T03:00:07;36.13;;;17.95;;
41480;SDS011;27217;51.220;5.308;2022-11-15T03:05:04;29.50;;;17.35;;
41480;SDS011;27217;51.220;5.308;2022-11-15T03:10:14;29.65;;;16.25;;
41480;SDS011;27217;51.220;5.308;2022-11-15T03:15:49;31.95;;;16.75;;
41480;SDS011;27217;51.220;5.308;2022-11-15T03:18:38;33.40;;;16.40;;
41480;SDS011;27217;51.220;5.308;2022-11-15T03:21:12;37.35;;;16.65;;
41480;SDS011;27217;51.220;5.308;2022-11-15T03:23:41;29.90;;;16.00;;
41480;SDS011;27217;51.220;5.308;2022-11-15T03:26:09;26.05;;;15.77;;
41480;SDS011;27217;51.220;5.308;2022-11-15T03:31:08;35.00;;;17.45;;
41480;SDS011;27217;51.220;5.308;2022-11-15T03:33:54;34.13;;;16.50;;
41480;SDS011;27217;51.220;5.308;2022-11-15T03:36:22;30.88;;;16.80;;
41480;SDS011;27217;51.220;5.308;2022-11-15T03:38:53;33.80;;;16.63;;
41480;SDS011;27217;51.220;5.308;2022-11-15T03:41:23;28.60;;;15.38;;
41480;SDS011;27217;51.220;5.308;2022-11-15T03:43:56;31.63;;;16.45;;
41480;SDS011;27217;51.220;5.308;2022-11-15T03:46:39;34.65;;;16.73;;
41480;SDS011;27217;51.220;5.308;2022-11-15T03:49:27;32.05;;;15.93;;
41480;SDS011;27217;51.220;5.308;2022-11-15T03:51:57;36.72;;;17.40;;
41480;SDS011;27217;51.220;5.308;2022-11-15T03:54:25;39.50;;;18.15;;
41480;SDS011;27217;51.220;5.308;2022-11-15T03:56:51;31.23;;;16.90;;
41480;SDS011;27217;51.220;5.308;2022-11-15T03:59:16;36.17;;;16.63;;
41480;SDS011;27217;51.220;5.308;2022-11-15T04:01:45;32.03;;;16.95;;
41480;SDS011;27217;51.220;5.308;2022-11-15T04:04:11;27.58;;;15.85;;
41480;SDS011;27217;51.220;5.308;2022-11-15T04:06:37;30.48;;;16.98;;
41480;SDS011;27217;51.220;5.308;2022-11-15T04:09:03;31.67;;;16.95;;
41480;SDS011;27217;51.220;5.308;2022-11-15T04:11:29;36.40;;;18.27;;
41480;SDS011;27217;51.220;5.308;2022-11-15T04:13:55;35.53;;;17.65;;
41480;SDS011;27217;51.220;5.308;2022-11-15T04:16:21;31.95;;;17.60;;
41480;SDS011;27217;51.220;5.308;2022-11-15T04:18:47;36.38;;;19.45;;
41480;SDS011;27217;51.220;5.308;2022-11-15T04:21:32;33.80;;;18.52;;
41480;SDS011;27217;51.220;5.308;2022-11-15T04:24:16;30.70;;;17.10;;
41480;SDS011;27217;51.220;5.308;2022-11-15T04:26:42;40.70;;;18.67;;
41480;SDS011;27217;51.220;5.308;2022-11-15T04:29:08;36.53;;;19.45;;
41480;SDS011;27217;51.220;5.308;2022-11-15T04:31:52;43.90;;;19.17;;
41480;SDS011;27217;51.220;5.308;2022-11-15T04:34:18;40.78;;;19.13;;
41480;SDS011;27217;51.220;5.308;2022-11-15T04:36:44;44.08;;;20.35;;
41480;SDS011;27217;51.220;5.308;2022-11-15T04:39:28;39.92;;;19.77;;
41480;SDS011;27217;51.220;5.308;2022-11-15T04:41:54;41.72;;;20.67;;
41480;SDS011;27217;51.220;5.308;2022-11-15T04:44:19;37.03;;;19.52;;
41480;SDS011;27217;51.220;5.308;2022-11-15T04:46:45;39.88;;;19.67;;
41480;SDS011;27217;51.220;5.308;2022-11-15T04:49:12;38.47;;;19.80;;
41480;SDS011;27217;51.220;5.308;2022-11-15T04:51:41;42.17;;;19.92;;
41480;SDS011;27217;51.220;5.308;2022-11-15T04:54:06;39.20;;;19.77;;
41480;SDS011;27217;51.220;5.308;2022-11-15T04:56:32;35.90;;;19.17;;
41480;SDS011;27217;51.220;5.308;2022-11-15T04:58:58;37.03;;;18.58;;
41480;SDS011;27217;51.220;5.308;2022-11-15T05:01:26;44.88;;;19.08;;
41480;SDS011;27217;51.220;5.308;2022-11-15T05:03:52;38.35;;;20.27;;
41480;SDS011;27217;51.220;5.308;2022-11-15T05:06:37;40.65;;;20.30;;
41480;SDS011;27217;51.220;5.308;2022-11-15T05:09:02;40.22;;;19.73;;
41480;SDS011;27217;51.220;5.308;2022-11-15T05:11:28;37.47;;;18.30;;
41480;SDS011;27217;51.220;5.308;2022-11-15T05:13:54;44.83;;;20.70;;
41480;SDS011;27217;51.220;5.308;2022-11-15T05:16:20;38.22;;;20.08;;
41480;SDS011;27217;51.220;5.308;2022-11-15T05:18:46;40.10;;;21.05;;
41480;SDS011;27217;51.220;5.308;2022-11-15T05:21:13;50.03;;;21.55;;
41480;SDS011;27217;51.220;5.308;2022-11-15T05:23:40;48.10;;;20.58;;
41480;SDS011;27217;51.220;5.308;2022-11-15T05:26:06;43.70;;;21.77;;
41480;SDS011;27217;51.220;5.308;2022-11-15T05:28:33;38.83;;;20.48;;
41480;SDS011;27217;51.220;5.308;2022-11-15T05:31:06;43.45;;;21.75;;
41480;SDS011;27217;51.220;5.308;2022-11-15T05:33:34;51.58;;;22.95;;
41480;SDS011;27217;51.220;5.308;2022-11-15T05:36:05;38.67;;;20.10;;
41480;SDS011;27217;51.220;5.308;2022-11-15T05:38:38;39.75;;;20.55;;
41480;SDS011;27217;51.220;5.308;2022-11-15T05:41:05;47.63;;;21.60;;
41480;SDS011;27217;51.220;5.308;2022-11-15T05:43:32;41.42;;;20.48;;
41480;SDS011;27217;51.220;5.308;2022-11-15T05:46:01;44.15;;;20.27;;
41480;SDS011;27217;51.220;5.308;2022-11-15T05:48:28;44.55;;;22.00;;
41480;SDS011;27217;51.220;5.308;2022-11-15T05:50:54;47.40;;;21.00;;
41480;SDS011;27217;51.220;5.308;2022-11-15T05:53:21;43.67;;;20.02;;
41480;SDS011;27217;51.220;5.308;2022-11-15T05:55:49;46.97;;;19.08;;
41480;SDS011;27217;51.220;5.308;2022-11-15T05:58:16;37.75;;;17.73;;
41480;SDS011;27217;51.220;5.308;2022-11-15T06:00:44;43.75;;;19.73;;
41480;SDS011;27217;51.220;5.308;2022-11-15T06:03:09;43.28;;;18.00;;
41480;SDS011;27217;51.220;5.308;2022-11-15T06:05:35;36.17;;;17.38;;
41480;SDS011;27217;51.220;5.308;2022-11-15T06:08:01;33.67;;;16.17;;
41480;SDS011;27217;51.220;5.308;2022-11-15T06:10:27;32.33;;;16.25;;
41480;SDS011;27217;51.220;5.308;2022-11-15T06:12:56;38.85;;;16.10;;
41480;SDS011;27217;51.220;5.308;2022-11-15T06:15:23;39.80;;;16.90;;
41480;SDS011;27217;51.220;5.308;2022-11-15T06:17:49;34.38;;;16.05;;
41480;SDS011;27217;51.220;5.308;2022-11-15T06:20:15;31.35;;;16.73;;
41480;SDS011;27217;51.220;5.308;2022-11-15T06:22:41;35.42;;;15.88;;
41480;SDS011;27217;51.220;5.308;2022-11-15T06:25:07;36.58;;;15.65;;
41480;SDS011;27217;51.220;5.308;2022-11-15T06:27:32;31.45;;;15.73;;
41480;SDS011;27217;51.220;5.308;2022-11-15T06:29:58;26.30;;;14.60;;
41480;SDS011;27217;51.220;5.308;2022-11-15T06:32:24;26.70;;;14.20;;
41480;SDS011;27217;51.220;5.308;2022-11-15T06:34:50;31.40;;;15.20;;
41480;SDS011;27217;51.220;5.308;2022-11-15T06:37:16;37.88;;;14.95;;
41480;SDS011;27217;51.220;5.308;2022-11-15T06:39:42;25.92;;;14.52;;
41480;SDS011;27217;51.220;5.308;2022-11-15T06:42:08;26.33;;;13.68;;
41480;SDS011;27217;51.220;5.308;2022-11-15T06:44:34;27.92;;;13.27;;
41480;SDS011;27217;51.220;5.308;2022-11-15T06:47:00;30.08;;;14.30;;
41480;SDS011;27217;51.220;5.308;2022-11-15T06:49:26;33.53;;;14.95;;
41480;SDS011;27217;51.220;5.308;2022-11-15T06:51:52;24.50;;;13.77;;
41480;SDS011;27217;51.220;5.308;2022-11-15T06:54:17;32.33;;;13.15;;
41480;SDS011;27217;51.220;5.308;2022-11-15T06:56:43;29.13;;;13.00;;
41480;SDS011;27217;51.220;5.308;2022-11-15T06:59:09;25.05;;;13.43;;
41480;SDS011;27217;51.220;5.308;2022-11-15T07:01:35;27.05;;;13.90;;
41480;SDS011;27217;51.220;5.308;2022-11-15T07:04:01;27.63;;;14.13;;
41480;SDS011;27217;51.220;5.308;2022-11-15T07:06:27;26.75;;;14.38;;
41480;SDS011;27217;51.220;5.308;2022-11-15T07:08:53;27.30;;;13.50;;
41480;SDS011;27217;51.220;5.308;2022-11-15T07:11:18;33.22;;;13.20;;
41480;SDS011;27217;51.220;5.308;2022-11-15T07:13:44;23.90;;;13.30;;
41480;SDS011;27217;51.220;5.308;2022-11-15T07:16:10;33.60;;;14.23;;
41480;SDS011;27217;51.220;5.308;2022-11-15T07:18:39;27.05;;;13.32;;
41480;SDS011;27217;51.220;5.308;2022-11-15T07:21:06;25.73;;;12.85;;
41480;SDS011;27217;51.220;5.308;2022-11-15T07:23:38;26.70;;;13.52;;
41480;SDS011;27217;51.220;5.308;2022-11-15T07:26:05;26.08;;;11.75;;
41480;SDS011;27217;51.220;5.308;2022-11-15T07:28:31;35.00;;;13.00;;
41480;SDS011;27217;51.220;5.308;2022-11-15T07:30:57;25.75;;;12.77;;
41480;SDS011;27217;51.220;5.308;2022-11-15T07:33:22;25.85;;;12.00;;
41480;SDS011;27217;51.220;5.308;2022-11-15T07:35:48;28.25;;;12.15;;
41480;SDS011;27217;51.220;5.308;2022-11-15T07:38:14;25.98;;;12.38;;
41480;SDS011;27217;51.220;5.308;2022-11-15T07:40:41;22.92;;;10.90;;
41480;SDS011;27217;51.220;5.308;2022-11-15T07:43:07;30.35;;;10.80;;
41480;SDS011;27217;51.220;5.308;2022-11-15T07:45:33;19.58;;;10.68;;
41480;SDS011;27217;51.220;5.308;2022-11-15T07:48:05;22.50;;;10.40;;
41480;SDS011;27217;51.220;5.308;2022-11-15T07:50:31;29.17;;;10.98;;
41480;SDS011;27217;51.220;5.308;2022-11-15T07:52:57;20.23;;;10.90;;
41480;SDS011;27217;51.220;5.308;2022-11-15T07:55:24;23.88;;;9.70;;
41480;SDS011;27217;51.220;5.308;2022-11-15T07:57:52;19.52;;;9.50;;
41480;SDS011;27217;51.220;5.308;2022-11-15T08:00:18;21.88;;;10.75;;
41480;SDS011;27217;51.220;5.308;2022-11-15T08:02:44;16.40;;;8.70;;
41480;SDS011;27217;51.220;5.308;2022-11-15T08:05:10;17.65;;;8.70;;
41480;SDS011;27217;51.220;5.308;2022-11-15T08:07:36;14.40;;;7.40;;
41480;SDS011;27217;51.220;5.308;2022-11-15T08:10:03;14.70;;;7.82;;
41480;SDS011;27217;51.220;5.308;2022-11-15T08:12:31;17.13;;;7.80;;
41480;SDS011;27217;51.220;5.308;2022-11-15T08:14:57;17.60;;;8.70;;
41480;SDS011;27217;51.220;5.308;2022-11-15T08:17:23;17.73;;;7.05;;
41480;SDS011;27217;51.220;5.308;2022-11-15T08:19:49;13.63;;;6.63;;
41480;SDS011;27217;51.220;5.308;2022-11-15T08:22:15;11.82;;;6.88;;
41480;SDS011;27217;51.220;5.308;2022-11-15T08:24:41;15.40;;;7.22;;
41480;SDS011;27217;51.220;5.308;2022-11-15T08:27:07;16.92;;;7.25;;
41480;SDS011;27217;51.220;5.308;2022-11-15T08:29:46;13.13;;;6.78;;
41480;SDS011;27217;51.220;5.308;2022-11-15T08:32:13;12.30;;;6.80;;
41480;SDS011;27217;51.220;5.308;2022-11-15T08:34:39;19.40;;;6.95;;
41480;SDS011;27217;51.220;5.308;2022-11-15T08:37:05;15.90;;;6.63;;
41480;SDS011;27217;51.220;5.308;2022-11-15T08:39:34;13.57;;;7.13;;
41480;SDS011;27217;51.220;5.308;2022-11-15T08:41:59;8.98;;;5.75;;
41480;SDS011;27217;51.220;5.308;2022-11-15T08:44:25;11.07;;;5.68;;
41480;SDS011;27217;51.220;5.308;2022-11-15T08:46:51;8.32;;;5.63;;
41480;SDS011;27217;51.220;5.308;2022-11-15T08:49:16;9.45;;;5.63;;
41480;SDS011;27217;51.220;5.308;2022-11-15T08:51:42;10.30;;;5.25;;
41480;SDS011;27217;51.220;5.308;2022-11-15T08:54:08;12.77;;;5.20;;
41480;SDS011;27217;51.220;5.308;2022-11-15T08:56:34;10.32;;;5.43;;
41480;SDS011;27217;51.220;5.308;2022-11-15T08:58:59;10.23;;;4.97;;
41480;SDS011;27217;51.220;5.308;2022-11-15T09:01:25;6.30;;;4.45;;
41480;SDS011;27217;51.220;5.308;2022-11-15T09:03:51;7.90;;;4.70;;
41480;SDS011;27217;51.220;5.308;2022-11-15T09:06:16;8.65;;;3.95;;
41480;SDS011;27217;51.220;5.308;2022-11-15T09:08:42;7.22;;;3.03;;
41480;SDS011;27217;51.220;5.308;2022-11-15T09:11:09;6.63;;;3.10;;
41480;SDS011;27217;51.220;5.308;2022-11-15T09:13:35;6.10;;;3.20;;
41480;SDS011;27217;51.220;5.308;2022-11-15T09:16:02;6.40;;;2.30;;
41480;SDS011;27217;51.220;5.308;2022-11-15T09:18:29;3.97;;;1.80;;
41480;SDS011;27217;51.220;5.308;2022-11-15T09:20:58;3.40;;;1.60;;
41480;SDS011;27217;51.220;5.308;2022-11-15T09:23:25;4.57;;;1.42;;
41480;SDS011;27217;51.220;5.308;2022-11-15T09:25:52;2.17;;;1.85;;
41480;SDS011;27217;51.220;5.308;2022-11-15T09:28:29;1.77;;;1.25;;
41480;SDS011;27217;51.220;5.308;2022-11-15T09:31:09;5.47;;;1.33;;
41480;SDS011;27217;51.220;5.308;2022-11-15T09:33:35;12.95;;;1.30;;
41480;SDS011;27217;51.220;5.308;2022-11-15T09:36:05;5.38;;;1.50;;
41480;SDS011;27217;51.220;5.308;2022-11-15T09:38:33;5.10;;;1.40;;
41480;SDS011;27217;51.220;5.308;2022-11-15T09:46:21;3.05;;;1.25;;
41480;SDS011;27217;51.220;5.308;2022-11-15T09:49:01;5.75;;;1.05;;
41480;SDS011;27217;51.220;5.308;2022-11-15T09:51:29;2.85;;;1.00;;
41480;SDS011;27217;51.220;5.308;2022-11-15T09:53:56;3.33;;;1.10;;
41480;SDS011;27217;51.220;5.308;2022-11-15T09:56:40;3.92;;;0.80;;
41480;SDS011;27217;51.220;5.308;2022-11-15T10:02:08;5.10;;;0.95;;
41480;SDS011;27217;51.220;5.308;2022-11-15T10:04:36;3.15;;;1.23;;
41480;SDS011;27217;51.220;5.308;2022-11-15T10:09:30;4.55;;;1.25;;
41480;SDS011;27217;51.220;5.308;2022-11-15T10:12:02;8.70;;;1.40;;
41480;SDS011;27217;51.220;5.308;2022-11-15T10:14:28;4.05;;;1.13;;
41480;SDS011;27217;51.220;5.308;2022-11-15T10:17:06;4.93;;;1.10;;
41480;SDS011;27217;51.220;5.308;2022-11-15T10:20:10;7.35;;;1.25;;
41480;SDS011;27217;51.220;5.308;2022-11-15T10:22:41;6.43;;;1.13;;
41480;SDS011;27217;51.220;5.308;2022-11-15T10:25:15;3.17;;;1.00;;
41480;SDS011;27217;51.220;5.308;2022-11-15T10:27:53;6.13;;;1.30;;
41480;SDS011;27217;51.220;5.308;2022-11-15T10:30:39;1.92;;;0.80;;
41480;SDS011;27217;51.220;5.308;2022-11-15T10:43:42;7.03;;;1.00;;
41480;SDS011;27217;51.220;5.308;2022-11-15T10:49:24;8.82;;;1.15;;
41480;SDS011;27217;51.220;5.308;2022-11-15T10:54:33;2.20;;;1.00;;
41480;SDS011;27217;51.220;5.308;2022-11-15T10:57:08;3.95;;;0.77;;
41480;SDS011;27217;51.220;5.308;2022-11-15T10:59:39;2.30;;;0.75;;
41480;SDS011;27217;51.220;5.308;2022-11-15T11:04:51;2.90;;;0.93;;
41480;SDS011;27217;51.220;5.308;2022-11-15T11:07:21;4.80;;;1.00;;
41480;SDS011;27217;51.220;5.308;2022-11-15T11:09:56;0.68;;;0.60;;
41480;SDS011;27217;51.220;5.308;2022-11-15T11:12:43;4.63;;;1.25;;
41480;SDS011;27217;51.220;5.308;2022-11-15T11:15:09;4.80;;;1.08;;
41480;SDS011;27217;51.220;5.308;2022-11-15T11:39:48;2.63;;;1.00;;
41480;SDS011;27217;51.220;5.308;2022-11-15T11:47:39;7.47;;;0.77;;
41480;SDS011;27217;51.220;5.308;2022-11-15T11:50:25;7.38;;;1.10;;
41480;SDS011;27217;51.220;5.308;2022-11-15T11:53:03;4.45;;;1.08;;
41480;SDS011;27217;51.220;5.308;2022-11-15T11:55:43;5.05;;;0.80;;
41480;SDS011;27217;51.220;5.308;2022-11-15T11:58:34;4.70;;;0.90;;
41480;SDS011;27217;51.220;5.308;2022-11-15T12:01:09;9.40;;;0.95;;
41480;SDS011;27217;51.220;5.308;2022-11-15T12:03:47;4.70;;;1.20;;
41480;SDS011;27217;51.220;5.308;2022-11-15T12:06:21;5.97;;;1.27;;
41480;SDS011;27217;51.220;5.308;2022-11-15T12:08:50;5.68;;;1.10;;
41480;SDS011;27217;51.220;5.308;2022-11-15T12:11:26;3.47;;;1.27;;
41480;SDS011;27217;51.220;5.308;2022-11-15T12:16:59;9.52;;;1.42;;
41480;SDS011;27217;51.220;5.308;2022-11-15T12:19:25;2.70;;;1.13;;
41480;SDS011;27217;51.220;5.308;2022-11-15T12:22:00;5.90;;;1.42;;
41480;SDS011;27217;51.220;5.308;2022-11-15T12:24:38;9.85;;;1.58;;
41480;SDS011;27217;51.220;5.308;2022-11-15T12:27:35;7.00;;;1.80;;
41480;SDS011;27217;51.220;5.308;2022-11-15T12:32:54;2.38;;;0.98;;
41480;SDS011;27217;51.220;5.308;2022-11-15T12:37:59;5.00;;;1.52;;
41480;SDS011;27217;51.220;5.308;2022-11-15T12:40:26;3.45;;;0.90;;
41480;SDS011;27217;51.220;5.308;2022-11-15T12:43:37;3.83;;;0.98;;
41480;SDS011;27217;51.220;5.308;2022-11-15T12:46:05;2.30;;;0.90;;
41480;SDS011;27217;51.220;5.308;2022-11-15T12:51:03;8.18;;;0.88;;
41480;SDS011;27217;51.220;5.308;2022-11-15T12:53:30;4.45;;;1.02;;
41480;SDS011;27217;51.220;5.308;2022-11-15T12:58:45;9.75;;;1.30;;
41480;SDS011;27217;51.220;5.308;2022-11-15T13:12:03;7.43;;;1.30;;
41480;SDS011;27217;51.220;5.308;2022-11-15T13:17:09;6.32;;;1.30;;
41480;SDS011;27217;51.220;5.308;2022-11-15T13:19:43;4.20;;;1.20;;
41480;SDS011;27217;51.220;5.308;2022-11-15T13:22:12;6.95;;;1.50;;
41480;SDS011;27217;51.220;5.308;2022-11-15T13:24:57;5.75;;;1.88;;
41480;SDS011;27217;51.220;5.308;2022-11-15T13:27:23;5.10;;;1.70;;
41480;SDS011;27217;51.220;5.308;2022-11-15T13:29:50;6.38;;;1.00;;
41480;SDS011;27217;51.220;5.308;2022-11-15T13:32:17;5.53;;;1.42;;
41480;SDS011;27217;51.220;5.308;2022-11-15T13:34:43;5.45;;;1.40;;
41480;SDS011;27217;51.220;5.308;2022-11-15T13:39:50;7.03;;;1.40;;
41480;SDS011;27217;51.220;5.308;2022-11-15T13:42:16;5.63;;;1.30;;
41480;SDS011;27217;51.220;5.308;2022-11-15T13:47:27;13.55;;;1.85;;
41480;SDS011;27217;51.220;5.308;2022-11-15T13:49:56;11.52;;;1.35;;
41480;SDS011;27217;51.220;5.308;2022-11-15T13:52:22;3.97;;;1.55;;
41480;SDS011;27217;51.220;5.308;2022-11-15T13:57:59;6.18;;;1.50;;
41480;SDS011;27217;51.220;5.308;2022-11-15T14:03:18;8.18;;;1.65;;
41480;SDS011;27217;51.220;5.308;2022-11-15T14:08:36;4.88;;;1.05;;
41480;SDS011;27217;51.220;5.308;2022-11-15T14:13:34;3.80;;;1.60;;
41480;SDS011;27217;51.220;5.308;2022-11-15T14:16:16;4.40;;;1.50;;
41480;SDS011;27217;51.220;5.308;2022-11-15T14:18:57;2.83;;;1.23;;
41480;SDS011;27217;51.220;5.308;2022-11-15T14:21:22;2.80;;;1.10;;
41480;SDS011;27217;51.220;5.308;2022-11-15T14:23:48;2.80;;;0.98;;
41480;SDS011;27217;51.220;5.308;2022-11-15T14:26:31;4.82;;;1.33;;
41480;SDS011;27217;51.220;5.308;2022-11-15T14:31:53;3.97;;;1.27;;
41480;SDS011;27217;51.220;5.308;2022-11-15T14:34:34;3.97;;;1.15;;
41480;SDS011;27217;51.220;5.308;2022-11-15T14:36:59;8.00;;;1.60;;
41480;SDS011;27217;51.220;5.308;2022-11-15T14:39:25;8.52;;;1.42;;
41480;SDS011;27217;51.220;5.308;2022-11-15T14:41:51;11.70;;;1.55;;
41480;SDS011;27217;51.220;5.308;2022-11-15T14:44:16;3.75;;;1.55;;
41480;SDS011;27217;51.220;5.308;2022-11-15T14:46:44;6.40;;;1.42;;
41480;SDS011;27217;51.220;5.308;2022-11-15T14:49:10;2.80;;;1.05;;
41480;SDS011;27217;51.220;5.308;2022-11-15T14:51:38;8.60;;;1.25;;
41480;SDS011;27217;51.220;5.308;2022-11-15T14:54:03;4.60;;;1.30;;
41480;SDS011;27217;51.220;5.308;2022-11-15T14:56:29;7.40;;;1.38;;
41480;SDS011;27217;51.220;5.308;2022-11-15T14:58:55;5.28;;;1.45;;
41480;SDS011;27217;51.220;5.308;2022-11-15T15:01:24;3.75;;;1.30;;
41480;SDS011;27217;51.220;5.308;2022-11-15T15:03:51;4.03;;;1.48;;
41480;SDS011;27217;51.220;5.308;2022-11-15T15:06:19;6.05;;;1.50;;
41480;SDS011;27217;51.220;5.308;2022-11-15T15:08:45;4.50;;;1.30;;
41480;SDS011;27217;51.220;5.308;2022-11-15T15:11:15;4.68;;;1.20;;
41480;SDS011;27217;51.220;5.308;2022-11-15T15:13:54;9.80;;;1.40;;
41480;SDS011;27217;51.220;5.308;2022-11-15T15:16:22;5.53;;;1.30;;
41480;SDS011;27217;51.220;5.308;2022-11-15T15:18:48;8.32;;;1.85;;
41480;SDS011;27217;51.220;5.308;2022-11-15T15:21:21;4.35;;;1.20;;
41480;SDS011;27217;51.220;5.308;2022-11-15T15:23:50;8.88;;;1.50;;
41480;SDS011;27217;51.220;5.308;2022-11-15T15:26:16;7.30;;;1.80;;
41480;SDS011;27217;51.220;5.308;2022-11-15T15:28:46;7.90;;;2.20;;
41480;SDS011;27217;51.220;5.308;2022-11-15T15:31:13;4.70;;;2.40;;
41480;SDS011;27217;51.220;5.308;2022-11-15T15:33:40;6.93;;;2.10;;
41480;SDS011;27217;51.220;5.308;2022-11-15T15:36:10;11.00;;;2.83;;
41480;SDS011;27217;51.220;5.308;2022-11-15T15:38:37;7.30;;;2.53;;
41480;SDS011;27217;51.220;5.308;2022-11-15T15:41:07;7.00;;;2.88;;
41480;SDS011;27217;51.220;5.308;2022-11-15T15:43:36;16.58;;;3.25;;
41480;SDS011;27217;51.220;5.308;2022-11-15T15:46:02;6.78;;;2.65;;
41480;SDS011;27217;51.220;5.308;2022-11-15T15:48:28;7.53;;;2.97;;
41480;SDS011;27217;51.220;5.308;2022-11-15T15:50:54;7.32;;;2.60;;
41480;SDS011;27217;51.220;5.308;2022-11-15T15:53:20;5.25;;;2.65;;
41480;SDS011;27217;51.220;5.308;2022-11-15T15:55:46;4.18;;;1.92;;
41480;SDS011;27217;51.220;5.308;2022-11-15T15:58:11;9.13;;;2.10;;
41480;SDS011;27217;51.220;5.308;2022-11-15T16:00:37;10.82;;;2.53;;
41480;SDS011;27217;51.220;5.308;2022-11-15T16:03:03;8.73;;;2.95;;
41480;SDS011;27217;51.220;5.308;2022-11-15T16:05:29;6.97;;;3.58;;
41480;SDS011;27217;51.220;5.308;2022-11-15T16:07:55;8.35;;;3.33;;
41480;SDS011;27217;51.220;5.308;2022-11-15T16:10:25;6.65;;;3.70;;
41480;SDS011;27217;51.220;5.308;2022-11-15T16:12:52;8.35;;;3.17;;
41480;SDS011;27217;51.220;5.308;2022-11-15T16:15:20;6.85;;;3.40;;
41480;SDS011;27217;51.220;5.308;2022-11-15T16:17:48;6.93;;;3.25;;
41480;SDS011;27217;51.220;5.308;2022-11-15T16:20:32;5.95;;;2.60;;
41480;SDS011;27217;51.220;5.308;2022-11-15T16:23:02;7.53;;;2.80;;
41480;SDS011;27217;51.220;5.308;2022-11-15T16:25:31;5.07;;;2.33;;
41480;SDS011;27217;51.220;5.308;2022-11-15T16:28:28;6.13;;;2.25;;
41480;SDS011;27217;51.220;5.308;2022-11-15T16:31:05;5.75;;;2.50;;
41480;SDS011;27217;51.220;5.308;2022-11-15T16:33:33;4.90;;;2.30;;
41480;SDS011;27217;51.220;5.308;2022-11-15T16:35:59;8.95;;;2.55;;
41480;SDS011;27217;51.220;5.308;2022-11-15T16:38:26;6.88;;;2.80;;
41480;SDS011;27217;51.220;5.308;2022-11-15T16:40:52;6.15;;;2.90;;
41480;SDS011;27217;51.220;5.308;2022-11-15T16:43:17;6.65;;;2.70;;
41480;SDS011;27217;51.220;5.308;2022-11-15T16:45:43;6.22;;;2.95;;
41480;SDS011;27217;51.220;5.308;2022-11-15T16:48:23;9.05;;;3.22;;
41480;SDS011;27217;51.220;5.308;2022-11-15T16:50:54;5.78;;;3.47;;
41480;SDS011;27217;51.220;5.308;2022-11-15T16:53:21;10.68;;;3.88;;